createdAt,value
2023-04-08T00:02:21.020Z,10.70
2023-04-08T00:04:47.435Z,11.48
2023-04-08T00:07:13.775Z,9.93
2023-04-08T00:09:40.078Z,10.50
2023-04-08T00:12:06.661Z,9.48
2023-04-08T00:14:33.036Z,11.80
2023-04-08T00:16:59.343Z,11.13
2023-04-08T00:19:25.736Z,10.55
2023-04-08T00:21:52.077Z,10.38
2023-04-08T00:24:19.395Z,7.72
2023-04-08T00:26:45.699Z,10.65
2023-04-08T00:29:12.014Z,10.65
2023-04-08T00:31:38.325Z,10.55
2023-04-08T00:34:04.647Z,9.40
2023-04-08T00:36:30.946Z,11.15
2023-04-08T00:38:57.256Z,9.98
2023-04-08T00:41:23.623Z,9.98
2023-04-08T00:43:49.938Z,11.95
2023-04-08T00:46:16.400Z,9.27
2023-04-08T00:48:42.769Z,7.93
2023-04-08T00:51:09.127Z,12.98
2023-04-08T00:53:35.436Z,12.25
2023-04-08T00:56:01.738Z,10.23
2023-04-08T00:58:29.321Z,11.85
2023-04-08T01:01:05.623Z,11.00
2023-04-08T01:03:47.075Z,9.98
2023-04-08T01:06:19.974Z,8.77
2023-04-08T01:08:48.064Z,12.25
2023-04-08T01:11:15.031Z,11.35
2023-04-08T01:13:44.513Z,9.82
2023-04-08T01:16:14.063Z,11.05
2023-04-08T01:18:42.116Z,8.95
2023-04-08T01:21:09.684Z,11.98
2023-04-08T01:24:10.835Z,10.45
2023-04-08T01:26:38.351Z,9.25
2023-04-08T01:29:07.406Z,11.20
2023-04-08T01:31:36.654Z,11.13
2023-04-08T01:34:04.940Z,10.90
2023-04-08T01:36:32.610Z,10.68
2023-04-08T01:39:01.925Z,11.68
2023-04-08T01:41:29.747Z,10.85
2023-04-08T01:43:57.551Z,10.75
2023-04-08T01:46:24.298Z,11.57
2023-04-08T01:48:52.110Z,13.68
2023-04-08T01:51:19.664Z,11.43
2023-04-08T01:53:46.029Z,10.80
2023-04-08T01:56:15.555Z,15.05
2023-04-08T01:58:46.310Z,12.10
2023-04-08T02:01:16.977Z,11.20
2023-04-08T02:03:45.039Z,12.77
2023-04-08T02:06:11.479Z,12.82
2023-04-08T02:08:37.775Z,12.93
2023-04-08T02:11:04.161Z,14.23
2023-04-08T02:13:32.145Z,13.65
2023-04-08T02:16:16.098Z,10.38
2023-04-08T02:18:47.992Z,12.52
2023-04-08T02:21:15.769Z,14.20
2023-04-08T02:23:48.556Z,17.08
2023-04-08T02:26:16.432Z,15.63
2023-04-08T02:28:43.209Z,12.40
2023-04-08T02:31:11.752Z,14.98
2023-04-08T02:33:39.198Z,11.32
2023-04-08T02:36:06.751Z,14.70
2023-04-08T02:38:33.088Z,12.75
2023-04-08T02:40:59.420Z,12.60
2023-04-08T02:43:26.077Z,14.43
2023-04-08T02:45:52.621Z,12.85
2023-04-08T02:48:18.939Z,12.75
2023-04-08T02:50:45.244Z,15.73
2023-04-08T02:53:11.561Z,14.48
2023-04-08T02:55:37.991Z,15.25
2023-04-08T02:58:04.320Z,14.82
2023-04-08T03:00:30.670Z,15.88
2023-04-08T03:02:57.230Z,16.15
2023-04-08T03:05:23.985Z,15.82
2023-04-08T03:07:50.278Z,15.82
2023-04-08T03:10:16.647Z,16.85
2023-04-08T03:12:43.085Z,17.50
2023-04-08T03:15:09.724Z,16.02
2023-04-08T03:17:36.097Z,18.40
2023-04-08T03:20:02.905Z,17.10
2023-04-08T03:22:29.230Z,20.40
2023-04-08T03:24:55.524Z,16.23
2023-04-08T03:27:21.837Z,18.70
2023-04-08T03:29:48.141Z,17.77
2023-04-08T03:32:14.566Z,18.10
2023-04-08T03:34:41.112Z,18.83
2023-04-08T03:37:07.598Z,18.20
2023-04-08T03:39:33.932Z,20.85
2023-04-08T03:42:00.290Z,24.90
2023-04-08T03:44:27.186Z,22.33
2023-04-08T03:46:53.486Z,21.52
2023-04-08T03:49:19.818Z,20.75
2023-04-08T03:51:46.156Z,22.92
2023-04-08T03:54:12.468Z,17.98
2023-04-08T03:56:38.790Z,21.88
2023-04-08T03:59:05.094Z,19.45
2023-04-08T04:01:31.451Z,18.88
2023-04-08T04:03:58.619Z,17.33
2023-04-08T04:06:25.122Z,17.70
2023-04-08T04:08:54.042Z,14.52
2023-04-08T04:11:20.366Z,15.00
2023-04-08T04:13:46.665Z,16.02
2023-04-08T04:16:13.033Z,16.15
2023-04-08T04:18:39.400Z,17.63
2023-04-08T04:21:06.604Z,13.73
2023-04-08T04:23:33.048Z,15.43
2023-04-08T04:25:59.437Z,13.38
2023-04-08T04:28:25.732Z,14.98
2023-04-08T04:30:52.385Z,13.63
2023-04-08T04:33:19.607Z,13.13
2023-04-08T04:35:45.935Z,15.73
2023-04-08T04:38:12.262Z,13.45
2023-04-08T04:40:39.389Z,15.20
2023-04-08T04:43:05.728Z,13.02
2023-04-08T04:45:32.128Z,13.35
2023-04-08T04:47:58.556Z,12.30
2023-04-08T04:50:24.947Z,11.85
2023-04-08T04:52:51.292Z,10.68
2023-04-08T04:55:17.621Z,13.25
2023-04-08T04:57:43.950Z,12.82
2023-04-08T05:00:10.794Z,14.00
2023-04-08T05:02:37.307Z,16.42
2023-04-08T05:05:03.961Z,15.43
2023-04-08T05:07:30.318Z,16.33
2023-04-08T05:09:56.612Z,15.65
2023-04-08T05:12:22.968Z,15.93
2023-04-08T05:14:49.275Z,14.93
2023-04-08T05:17:15.569Z,14.65
2023-04-08T05:19:41.884Z,14.30
2023-04-08T05:22:08.194Z,16.27
2023-04-08T05:24:34.524Z,16.40
2023-04-08T05:27:00.819Z,15.88
2023-04-08T05:29:27.341Z,18.27
2023-04-08T05:31:53.788Z,15.70
2023-04-08T05:34:20.143Z,16.52
2023-04-08T05:36:46.444Z,15.70
2023-04-08T05:39:12.730Z,15.80
2023-04-08T05:41:39.046Z,16.38
2023-04-08T05:44:05.423Z,18.33
2023-04-08T05:46:31.737Z,13.68
2023-04-08T05:48:58.069Z,18.05
2023-04-08T05:51:24.398Z,19.42
2023-04-08T05:53:50.686Z,17.63
2023-04-08T05:56:16.990Z,22.65
2023-04-08T05:58:43.303Z,17.77
2023-04-08T06:01:09.647Z,17.13
2023-04-08T06:03:36.151Z,17.90
2023-04-08T06:06:02.569Z,17.80
2023-04-08T06:08:28.881Z,17.92
2023-04-08T06:10:55.227Z,18.85
2023-04-08T06:13:21.544Z,23.00
2023-04-08T06:15:48.198Z,15.98
2023-04-08T06:18:16.448Z,18.20
2023-04-08T06:20:42.772Z,17.58
2023-04-08T06:23:09.094Z,18.90
2023-04-08T06:25:35.425Z,21.80
2023-04-08T06:28:01.774Z,17.77
2023-04-08T06:30:28.115Z,21.45
2023-04-08T06:32:54.498Z,17.90
2023-04-08T06:35:20.866Z,18.33
2023-04-08T06:37:47.217Z,19.33
2023-04-08T06:40:13.553Z,22.08
2023-04-08T06:42:39.855Z,20.23
2023-04-08T06:45:06.485Z,20.52
2023-04-08T06:47:32.839Z,21.80
2023-04-08T06:49:59.200Z,20.00
2023-04-08T06:52:25.531Z,20.55
2023-04-08T06:54:51.820Z,18.23
2023-04-08T06:57:18.294Z,17.15
2023-04-08T06:59:44.617Z,19.00
2023-04-08T07:02:10.960Z,19.20
2023-04-08T07:04:37.326Z,21.00
2023-04-08T07:07:03.627Z,19.45
2023-04-08T07:09:29.973Z,20.30
2023-04-08T07:11:56.274Z,20.92
2023-04-08T07:14:22.596Z,20.13
2023-04-08T07:16:48.980Z,26.23
2023-04-08T07:19:15.295Z,18.85
2023-04-08T07:21:41.612Z,19.83
2023-04-08T07:24:07.932Z,19.48
2023-04-08T07:26:34.224Z,19.80
2023-04-08T07:29:00.537Z,24.90
2023-04-08T07:31:26.883Z,20.50
2023-04-08T07:33:53.247Z,22.83
2023-04-08T07:36:19.593Z,22.27
2023-04-08T07:38:45.973Z,24.33
2023-04-08T07:41:12.368Z,24.80
2023-04-08T07:43:38.689Z,22.10
2023-04-08T07:46:06.173Z,24.25
2023-04-08T07:48:33.754Z,24.20
2023-04-08T07:51:18.007Z,27.00
2023-04-08T07:53:47.203Z,25.98
2023-04-08T07:56:15.428Z,30.08
2023-04-08T07:58:42.341Z,26.15
2023-04-08T08:01:22.979Z,30.00
2023-04-08T08:03:51.121Z,30.35
2023-04-08T08:06:17.919Z,29.38
2023-04-08T08:08:44.338Z,28.30
2023-04-08T08:11:10.656Z,31.02
2023-04-08T08:13:37.015Z,29.40
2023-04-08T08:16:03.439Z,28.85
2023-04-08T08:18:29.782Z,30.00
2023-04-08T08:20:56.158Z,34.67
2023-04-08T08:23:22.505Z,31.98
2023-04-08T08:25:48.845Z,36.78
2023-04-08T08:28:15.177Z,30.23
2023-04-08T08:30:41.523Z,31.40
2023-04-08T08:33:08.049Z,35.95
2023-04-08T08:35:34.474Z,36.42
2023-04-08T08:38:00.858Z,32.03
2023-04-08T08:40:27.227Z,35.03
2023-04-08T08:42:53.612Z,32.25
2023-04-08T08:45:20.536Z,33.03
2023-04-08T08:47:48.986Z,33.28
2023-04-08T08:50:16.835Z,36.22
2023-04-08T08:52:52.523Z,37.03
2023-04-08T08:55:36.370Z,37.22
2023-04-08T08:58:06.672Z,35.08
2023-04-08T09:00:37.549Z,33.47
2023-04-08T09:03:15.903Z,35.85
2023-04-08T09:05:50.200Z,38.72
2023-04-08T09:08:28.402Z,38.72
2023-04-08T09:10:55.907Z,36.65
2023-04-08T09:13:23.525Z,34.47
2023-04-08T09:16:01.995Z,35.10
2023-04-08T09:18:28.395Z,32.00
2023-04-08T09:20:54.801Z,39.47
2023-04-08T09:23:21.160Z,33.60
2023-04-08T09:25:48.104Z,41.72
2023-04-08T09:28:20.929Z,32.10
2023-04-08T09:30:47.526Z,32.03
2023-04-08T09:33:13.888Z,34.45
2023-04-08T09:35:40.233Z,35.13
2023-04-08T09:38:06.582Z,30.85
2023-04-08T09:40:34.752Z,31.33
2023-04-08T09:43:05.029Z,30.38
2023-04-08T09:45:34.048Z,33.40
2023-04-08T09:48:15.782Z,29.92
2023-04-08T09:50:50.726Z,34.75
2023-04-08T09:53:26.440Z,35.05
2023-04-08T09:55:56.856Z,33.88
2023-04-08T09:58:29.158Z,32.88
2023-04-08T10:00:55.772Z,32.30
2023-04-08T10:03:45.568Z,28.20
2023-04-08T10:06:12.407Z,29.88
2023-04-08T10:08:39.112Z,28.48
2023-04-08T10:11:05.503Z,32.40
2023-04-08T10:13:33.771Z,31.40
2023-04-08T10:16:22.146Z,32.00
2023-04-08T10:18:48.799Z,36.20
2023-04-08T10:21:33.839Z,34.22
2023-04-08T10:24:01.759Z,35.92
2023-04-08T10:26:54.421Z,39.83
2023-04-08T10:29:26.456Z,36.10
2023-04-08T10:31:52.914Z,39.92
2023-04-08T10:34:21.125Z,34.67
2023-04-08T10:36:48.284Z,38.38
2023-04-08T10:39:15.141Z,42.13
2023-04-08T10:41:42.547Z,41.97
2023-04-08T10:44:27.126Z,37.47
2023-04-08T10:46:54.566Z,41.88
2023-04-08T10:49:21.060Z,45.10
2023-04-08T10:51:47.505Z,42.53
2023-04-08T10:54:18.166Z,36.25
2023-04-08T10:56:49.357Z,36.20
2023-04-08T10:59:17.771Z,34.90
2023-04-08T11:01:46.804Z,32.75
2023-04-08T11:04:18.057Z,36.53
2023-04-08T11:06:45.711Z,33.70
2023-04-08T11:09:12.332Z,29.83
2023-04-08T11:11:39.164Z,30.52
2023-04-08T11:14:06.461Z,34.08
2023-04-08T11:16:33.946Z,34.58
2023-04-08T11:19:02.492Z,34.08
2023-04-08T11:21:28.916Z,32.58
2023-04-08T11:23:55.684Z,37.92
2023-04-08T11:26:22.589Z,34.13
2023-04-08T11:28:49.143Z,37.47
2023-04-08T11:31:15.682Z,38.47
2023-04-08T11:33:49.391Z,32.38
2023-04-08T11:36:18.002Z,36.70
2023-04-08T11:38:44.464Z,35.17
2023-04-08T11:41:11.069Z,30.42
2023-04-08T11:43:37.911Z,32.65
2023-04-08T11:46:11.040Z,34.88
2023-04-08T11:48:37.519Z,32.28
2023-04-08T11:51:08.161Z,28.55
2023-04-08T11:53:35.313Z,30.45
2023-04-08T11:56:19.270Z,31.00
2023-04-08T11:58:45.683Z,33.53
2023-04-08T12:01:12.342Z,43.05
2023-04-08T12:03:38.952Z,38.35
2023-04-08T12:06:05.509Z,37.30
2023-04-08T12:08:31.819Z,36.42
2023-04-08T12:11:03.736Z,33.45
2023-04-08T12:13:39.431Z,33.60
2023-04-08T12:16:06.022Z,30.45
2023-04-08T12:18:32.309Z,31.20
2023-04-08T12:20:58.632Z,35.10
2023-04-08T12:23:25.013Z,29.98
2023-04-08T12:25:51.331Z,34.03
2023-04-08T12:28:17.634Z,33.17
2023-04-08T12:30:43.934Z,34.92
2023-04-08T12:33:10.332Z,34.40
2023-04-08T12:35:37.787Z,36.63
2023-04-08T12:38:04.102Z,35.33
2023-04-08T12:40:30.422Z,35.13
2023-04-08T12:42:56.726Z,36.55
2023-04-08T12:45:23.129Z,35.70
2023-04-08T12:47:49.494Z,33.85
2023-04-08T12:50:15.894Z,34.72
2023-04-08T12:52:42.198Z,33.28
2023-04-08T12:55:08.983Z,28.80
2023-04-08T12:57:35.641Z,33.03
2023-04-08T13:00:02.053Z,30.52
2023-04-08T13:02:28.489Z,31.67
2023-04-08T13:04:54.880Z,29.65
2023-04-08T13:07:21.414Z,28.92
2023-04-08T13:09:47.708Z,27.00
2023-04-08T13:12:14.021Z,31.85
2023-04-08T13:14:40.327Z,35.40
2023-04-08T13:17:06.628Z,53.95
2023-04-08T13:19:32.934Z,30.63
2023-04-08T13:21:59.276Z,31.60
2023-04-08T13:24:25.624Z,30.00
2023-04-08T13:26:51.917Z,36.45
2023-04-08T13:29:18.213Z,26.98
2023-04-08T13:31:44.547Z,29.20
2023-04-08T13:34:10.874Z,32.78
2023-04-08T13:36:37.166Z,31.60
2023-04-08T13:39:03.566Z,30.13
2023-04-08T13:41:29.853Z,30.95
2023-04-08T13:43:56.185Z,34.75
2023-04-08T13:46:22.556Z,28.50
2023-04-08T13:48:48.963Z,29.10
2023-04-08T13:51:15.372Z,27.33
2023-04-08T13:53:41.682Z,26.55
2023-04-08T13:56:08.101Z,31.75
2023-04-08T13:58:34.409Z,27.48
2023-04-08T14:01:00.802Z,28.58
2023-04-08T14:03:27.162Z,32.65
2023-04-08T14:05:53.557Z,27.05
2023-04-08T14:08:19.857Z,29.00
2023-04-08T14:10:46.154Z,25.70
2023-04-08T14:13:12.428Z,28.67
2023-04-08T14:15:38.737Z,28.45
2023-04-08T14:18:05.083Z,27.77
2023-04-08T14:20:31.437Z,29.17
2023-04-08T14:22:57.752Z,31.92
2023-04-08T14:25:24.405Z,34.03
2023-04-08T14:27:58.133Z,37.20
2023-04-08T14:30:25.348Z,40.67
2023-04-08T14:32:51.736Z,36.47
2023-04-08T14:35:18.450Z,39.80
2023-04-08T14:37:44.755Z,38.35
2023-04-08T14:40:11.529Z,36.60
2023-04-08T14:42:37.925Z,37.95
2023-04-08T14:45:04.457Z,42.47
2023-04-08T14:47:30.793Z,37.42
2023-04-08T14:49:57.157Z,32.10
2023-04-08T14:52:23.457Z,38.58
2023-04-08T14:54:49.740Z,32.75
2023-04-08T14:57:16.073Z,35.47
2023-04-08T14:59:42.374Z,33.63
2023-04-08T15:02:08.827Z,30.23
2023-04-08T15:04:35.344Z,33.45
2023-04-08T15:07:01.743Z,35.90
2023-04-08T15:09:28.068Z,35.35
2023-04-08T15:11:54.381Z,34.53
2023-04-08T15:14:20.674Z,37.38
2023-04-08T15:16:47.072Z,37.08
2023-04-08T15:19:13.391Z,38.60
2023-04-08T15:21:39.708Z,41.92
2023-04-08T15:24:06.095Z,33.33
2023-04-08T15:26:32.407Z,37.05
2023-04-08T15:28:58.700Z,39.85
2023-04-08T15:31:25.095Z,35.80
2023-04-08T15:33:51.676Z,36.63
2023-04-08T15:36:18.191Z,34.35
2023-04-08T15:38:44.693Z,37.83
2023-04-08T15:41:18.470Z,32.10
2023-04-08T15:43:45.926Z,31.10
2023-04-08T15:46:17.609Z,35.00
2023-04-08T15:48:44.100Z,43.97
2023-04-08T15:51:10.684Z,45.00
2023-04-08T15:53:36.983Z,38.22
2023-04-08T15:56:03.300Z,32.85
2023-04-08T15:58:29.898Z,36.80
2023-04-08T16:00:56.198Z,33.05
2023-04-08T16:03:22.697Z,32.10
2023-04-08T16:05:49.152Z,32.70
2023-04-08T16:08:15.565Z,33.05
2023-04-08T16:10:42.340Z,32.47
2023-04-08T16:13:08.642Z,30.23
2023-04-08T16:15:35.356Z,29.67
2023-04-08T16:18:03.100Z,27.70
2023-04-08T16:20:29.422Z,29.52
2023-04-08T16:22:56.134Z,31.23
2023-04-08T16:25:22.625Z,31.67
2023-04-08T16:27:48.939Z,28.50
2023-04-08T16:30:15.463Z,35.05
2023-04-08T16:32:41.774Z,33.38
2023-04-08T16:35:08.573Z,31.92
2023-04-08T16:37:34.869Z,29.33
2023-04-08T16:40:01.254Z,31.20
2023-04-08T16:42:27.614Z,28.73
2023-04-08T16:44:57.277Z,30.85
2023-04-08T16:47:23.802Z,33.60
2023-04-08T16:49:51.295Z,28.02
2023-04-08T16:52:17.601Z,27.10
2023-04-08T16:54:44.306Z,33.90
2023-04-08T16:57:10.617Z,30.85
2023-04-08T16:59:36.978Z,33.88
2023-04-08T17:02:03.515Z,33.92
2023-04-08T17:04:29.981Z,34.53
2023-04-08T17:06:56.412Z,34.50
2023-04-08T17:09:23.016Z,38.33
2023-04-08T17:11:49.413Z,30.23
2023-04-08T17:14:15.738Z,30.38
2023-04-08T17:16:42.073Z,30.95
2023-04-08T17:19:08.452Z,30.40
2023-04-08T17:21:34.744Z,29.98
2023-04-08T17:24:01.075Z,32.40
2023-04-08T17:26:27.417Z,34.50
2023-04-08T17:28:53.729Z,30.58
2023-04-08T17:31:20.067Z,29.60
2023-04-08T17:33:46.390Z,35.80
2023-04-08T17:36:12.851Z,34.83
2023-04-08T17:38:39.174Z,35.15
2023-04-08T17:41:05.829Z,39.78
2023-04-08T17:43:32.137Z,38.63
2023-04-08T17:46:01.850Z,41.10
2023-04-08T17:48:28.402Z,42.75
2023-04-08T17:51:02.096Z,43.15
2023-04-08T17:53:28.509Z,48.72
2023-04-08T17:55:54.829Z,45.95
2023-04-08T17:58:22.276Z,44.90
2023-04-08T18:00:48.710Z,46.72
2023-04-08T18:03:15.204Z,47.30
2023-04-08T18:05:42.024Z,42.95
2023-04-08T18:08:08.714Z,43.15
2023-04-08T18:10:37.041Z,46.63
2023-04-08T18:15:35.306Z,43.85
2023-04-08T18:18:01.748Z,40.63
2023-04-08T18:20:28.084Z,41.72
2023-04-08T18:22:54.460Z,41.53
2023-04-08T18:25:20.777Z,43.05
2023-04-08T18:27:47.090Z,42.78
2023-04-08T18:30:13.519Z,44.92
2023-04-08T18:32:39.854Z,41.47
2023-04-08T18:35:06.603Z,53.60
2023-04-08T18:37:32.920Z,52.15
2023-04-08T18:39:59.230Z,49.33
2023-04-08T18:42:25.525Z,52.35
2023-04-08T18:44:51.829Z,49.75
2023-04-08T18:47:18.131Z,53.15
2023-04-08T18:49:44.428Z,49.60
2023-04-08T18:52:10.761Z,45.35
2023-04-08T18:54:37.071Z,51.50
2023-04-08T18:57:03.407Z,49.40
2023-04-08T18:59:29.744Z,51.35
2023-04-08T19:01:56.317Z,49.67
2023-04-08T19:04:22.948Z,45.78
2023-04-08T19:06:49.315Z,52.60
2023-04-08T19:09:15.615Z,51.15
2023-04-08T19:11:41.931Z,50.25
2023-04-08T19:14:08.254Z,51.88
2023-04-08T19:16:34.809Z,52.28
2023-04-08T19:19:01.166Z,49.13
2023-04-08T19:21:27.542Z,47.80
2023-04-08T19:23:54.084Z,47.50
2023-04-08T19:26:20.430Z,57.80
2023-04-08T19:28:46.759Z,49.78
2023-04-08T19:31:17.515Z,51.55
2023-04-08T19:33:44.340Z,50.13
2023-04-08T19:36:11.365Z,53.45
2023-04-08T19:38:38.087Z,50.13
2023-04-08T19:41:04.648Z,56.15
2023-04-08T19:43:30.959Z,53.80
2023-04-08T19:45:57.812Z,50.70
2023-04-08T19:48:24.739Z,51.55
2023-04-08T19:50:52.107Z,55.42
2023-04-08T19:53:18.635Z,54.72
2023-04-08T19:55:44.939Z,48.28
2023-04-08T19:58:11.416Z,52.88
2023-04-08T20:00:37.728Z,47.58
2023-04-08T20:03:05.256Z,46.45
2023-04-08T20:05:31.884Z,46.45
2023-04-08T20:07:58.204Z,41.65
2023-04-08T20:10:24.510Z,45.03
2023-04-08T20:12:52.932Z,46.67
2023-04-08T20:15:24.710Z,44.75
2023-04-08T20:17:51.835Z,43.35
2023-04-08T20:20:18.296Z,44.95
2023-04-08T20:22:44.630Z,44.38
2023-04-08T20:25:10.940Z,44.00
2023-04-08T20:27:37.249Z,39.75
2023-04-08T20:30:03.809Z,44.78
2023-04-08T20:32:30.114Z,46.20
2023-04-08T20:34:56.428Z,46.17
2023-04-08T20:37:22.743Z,48.03
2023-04-08T20:39:49.055Z,47.72
2023-04-08T20:42:15.355Z,45.92
2023-04-08T20:44:41.686Z,46.03
2023-04-08T20:47:08.059Z,49.13
2023-04-08T20:49:34.493Z,46.83
2023-04-08T20:52:00.796Z,50.85
2023-04-08T20:54:27.123Z,49.50
2023-04-08T20:56:53.420Z,47.47
2023-04-08T20:59:19.741Z,53.50
2023-04-08T21:01:46.173Z,47.83
2023-04-08T21:04:12.533Z,50.33
2023-04-08T21:06:38.844Z,51.70
2023-04-08T21:09:05.167Z,53.03
2023-04-08T21:11:31.480Z,48.45
2023-04-08T21:13:57.799Z,52.72
2023-04-08T21:16:24.137Z,58.78
2023-04-08T21:18:50.690Z,60.45
2023-04-08T21:21:17.212Z,52.03
2023-04-08T21:23:43.513Z,50.83
2023-04-08T21:26:11.120Z,57.92
2023-04-08T21:28:37.474Z,51.67
2023-04-08T21:31:13.520Z,58.42
2023-04-08T21:33:40.077Z,60.78
2023-04-08T21:36:06.655Z,61.17
2023-04-08T21:38:33.676Z,65.93
2023-04-08T21:41:00.238Z,62.17
2023-04-08T21:43:26.646Z,61.60
2023-04-08T21:45:53.832Z,57.65
2023-04-08T21:48:20.420Z,67.82
2023-04-08T21:50:47.173Z,61.97
2023-04-08T21:53:13.496Z,65.72
2023-04-08T21:55:39.806Z,67.28
2023-04-08T21:58:06.111Z,69.03
2023-04-08T22:00:32.414Z,65.32
2023-04-08T22:02:58.984Z,64.97
2023-04-08T22:05:25.480Z,63.45
2023-04-08T22:07:51.789Z,61.78
2023-04-08T22:10:18.166Z,65.07
2023-04-08T22:12:44.468Z,65.85
2023-04-08T22:15:11.099Z,66.43
2023-04-08T22:17:37.410Z,69.97
2023-04-08T22:20:03.993Z,68.63
2023-04-08T22:22:30.320Z,68.70
2023-04-08T22:24:56.630Z,67.47
2023-04-08T22:27:22.917Z,65.13
2023-04-08T22:29:49.251Z,61.80
2023-04-08T22:32:15.604Z,61.35
2023-04-08T22:34:41.931Z,59.22
2023-04-08T22:37:08.266Z,61.28
2023-04-08T22:39:34.584Z,62.35
2023-04-08T22:42:00.946Z,64.95
2023-04-08T22:44:27.254Z,62.95
2023-04-08T22:46:53.541Z,63.33
2023-04-08T22:49:19.847Z,68.05
2023-04-08T22:51:46.162Z,63.42
2023-04-08T22:54:12.466Z,71.18
2023-04-08T22:56:38.797Z,72.43
2023-04-08T22:59:05.166Z,69.75
2023-04-08T23:01:31.627Z,67.60
2023-04-08T23:03:58.024Z,71.75
2023-04-08T23:06:24.519Z,71.45
2023-04-08T23:08:51.060Z,74.28
2023-04-08T23:11:17.639Z,77.18
2023-04-08T23:13:43.939Z,82.95
2023-04-08T23:16:10.546Z,76.13
2023-04-08T23:18:36.943Z,76.97
2023-04-08T23:21:03.292Z,73.45
2023-04-08T23:23:29.601Z,76.95
2023-04-08T23:25:56.048Z,81.78
2023-04-08T23:28:22.784Z,80.65
2023-04-08T23:30:49.120Z,79.65
2023-04-08T23:33:15.483Z,78.75
2023-04-08T23:35:41.959Z,69.18
2023-04-08T23:38:08.294Z,76.47
2023-04-08T23:40:34.609Z,71.68
2023-04-08T23:43:00.903Z,73.45
2023-04-08T23:45:27.191Z,73.20
2023-04-08T23:47:53.562Z,75.07
2023-04-08T23:50:19.862Z,75.30
2023-04-08T23:52:46.163Z,77.10
2023-04-08T23:55:12.457Z,74.55
2023-04-08T23:57:41.842Z,75.65
